createdAt,value
2023-02-28T00:00:11.676Z,68.10
2023-02-28T00:02:43.467Z,68.20
2023-02-28T00:05:14.318Z,68.50
2023-02-28T00:07:43.880Z,68.70
2023-02-28T00:10:14.514Z,69.00
2023-02-28T00:12:44.130Z,69.30
2023-02-28T00:15:13.826Z,69.40
2023-02-28T00:17:48.674Z,69.50
2023-02-28T00:20:18.477Z,69.50
2023-02-28T00:22:48.714Z,69.60
2023-02-28T00:25:19.198Z,69.40
2023-02-28T00:27:49.155Z,68.80
2023-02-28T00:30:20.770Z,69.00
2023-02-28T00:32:51.453Z,68.90
2023-02-28T00:35:20.692Z,68.60
2023-02-28T00:37:51.072Z,68.50
2023-02-28T00:40:20.100Z,68.50
2023-02-28T00:42:49.083Z,68.50
2023-02-28T00:45:18.131Z,68.80
2023-02-28T00:47:47.676Z,69.30
2023-02-28T00:50:20.120Z,69.80
2023-02-28T00:52:49.215Z,70.00
2023-02-28T00:55:19.761Z,70.10
2023-02-28T00:57:48.716Z,70.60
2023-02-28T01:00:18.254Z,71.10
2023-02-28T01:02:47.239Z,71.30
2023-02-28T01:05:17.182Z,71.10
2023-02-28T01:07:49.312Z,71.30
2023-02-28T01:10:18.859Z,71.30
2023-02-28T01:12:47.670Z,71.20
2023-02-28T01:15:18.616Z,72.00
2023-02-28T01:17:47.605Z,72.00
2023-02-28T01:20:17.285Z,71.20
2023-02-28T01:22:46.309Z,71.90
2023-02-28T01:25:16.957Z,72.70
2023-02-28T01:27:46.682Z,73.00
2023-02-28T01:30:15.951Z,73.10
2023-02-28T01:33:03.607Z,72.60
2023-02-28T01:35:35.831Z,72.30
2023-02-28T01:38:20.824Z,72.00
2023-02-28T01:40:52.198Z,71.90
2023-02-28T01:43:25.377Z,71.20
2023-02-28T01:45:55.182Z,70.60
2023-02-28T01:48:28.435Z,70.30
2023-02-28T01:51:01.041Z,70.00
2023-02-28T01:53:39.240Z,69.80
2023-02-28T01:56:13.096Z,69.50
2023-02-28T01:58:42.960Z,69.70
2023-02-28T02:01:22.716Z,70.20
2023-02-28T02:04:03.900Z,70.10
2023-02-28T02:06:40.708Z,70.40
2023-02-28T02:09:14.354Z,71.10
2023-02-28T02:12:00.308Z,71.90
2023-02-28T02:14:54.436Z,73.10
2023-02-28T02:17:32.091Z,73.60
2023-02-28T02:20:30.021Z,73.30
2023-02-28T02:23:27.941Z,73.60
2023-02-28T02:25:59.085Z,73.80
2023-02-28T02:29:03.641Z,74.20
2023-02-28T02:32:02.381Z,74.30
2023-02-28T02:34:48.736Z,74.60
2023-02-28T02:37:30.390Z,75.40
2023-02-28T02:40:06.599Z,75.80
2023-02-28T02:42:43.832Z,76.20
2023-02-28T02:45:17.308Z,76.90
2023-02-28T02:47:47.721Z,77.30
2023-02-28T02:50:23.719Z,77.50
2023-02-28T02:52:58.496Z,78.20
2023-02-28T02:55:28.200Z,78.70
2023-02-28T02:58:01.167Z,78.50
2023-02-28T03:00:39.865Z,78.60
2023-02-28T03:03:11.909Z,78.90
2023-02-28T03:05:48.383Z,79.10
2023-02-28T03:08:18.479Z,79.50
2023-02-28T03:10:50.800Z,79.70
2023-02-28T03:13:57.261Z,79.90
2023-02-28T03:16:35.918Z,80.00
2023-02-28T03:19:26.398Z,80.00
2023-02-28T03:22:12.158Z,79.90
2023-02-28T03:24:48.270Z,80.40
2023-02-28T03:27:23.761Z,80.70
2023-02-28T03:29:59.920Z,81.00
2023-02-28T03:32:32.218Z,81.20
2023-02-28T03:35:07.709Z,81.40
2023-02-28T03:37:43.374Z,81.60
2023-02-28T03:40:35.777Z,81.90
2023-02-28T03:43:10.218Z,82.30
2023-02-28T03:45:42.177Z,82.40
2023-02-28T03:48:17.566Z,82.40
2023-02-28T03:50:50.401Z,82.50
2023-02-28T03:53:23.851Z,82.50
2023-02-28T03:55:56.730Z,82.80
2023-02-28T03:58:30.807Z,83.20
2023-02-28T04:01:09.278Z,83.60
2023-02-28T04:03:38.776Z,83.80
2023-02-28T04:06:10.027Z,83.90
2023-02-28T04:08:40.409Z,84.20
2023-02-28T04:11:34.848Z,84.60
2023-02-28T04:14:03.883Z,84.90
2023-02-28T04:16:35.625Z,85.20
2023-02-28T04:19:06.403Z,85.60
2023-02-28T04:21:40.183Z,86.10
2023-02-28T04:24:15.474Z,86.70
2023-02-28T04:26:46.677Z,87.20
2023-02-28T04:29:20.330Z,87.60
2023-02-28T04:31:49.672Z,88.10
2023-02-28T04:34:20.149Z,88.70
2023-02-28T04:36:59.628Z,89.10
2023-02-28T04:39:39.884Z,89.50
2023-02-28T04:42:09.035Z,89.80
2023-02-28T04:44:37.919Z,90.00
2023-02-28T04:47:06.828Z,90.10
2023-02-28T04:49:35.690Z,90.20
2023-02-28T04:52:04.753Z,90.40
2023-02-28T04:54:33.632Z,90.10
2023-02-28T04:57:05.635Z,90.10
2023-02-28T04:59:34.856Z,90.10
2023-02-28T05:02:13.708Z,90.20
2023-02-28T05:04:45.431Z,90.10
2023-02-28T05:07:14.616Z,90.40
2023-02-28T05:09:43.407Z,90.00
2023-02-28T05:12:13.793Z,89.10
2023-02-28T05:14:42.782Z,88.30
2023-02-28T05:17:26.011Z,87.80
2023-02-28T05:20:01.041Z,87.80
2023-02-28T05:22:35.570Z,86.40
2023-02-28T05:25:04.575Z,85.50
2023-02-28T05:27:35.133Z,85.00
2023-02-28T05:30:05.648Z,84.60
2023-02-28T05:32:34.624Z,84.20
2023-02-28T05:35:03.649Z,83.70
2023-02-28T05:37:32.510Z,83.30
2023-02-28T05:40:01.509Z,83.10
2023-02-28T05:42:30.464Z,82.90
2023-02-28T05:45:03.184Z,82.80
2023-02-28T05:47:32.166Z,82.30
2023-02-28T05:50:01.226Z,82.00
2023-02-28T05:52:31.115Z,81.20
2023-02-28T05:55:00.183Z,80.70
2023-02-28T05:57:29.064Z,79.70
2023-02-28T05:59:57.979Z,79.10
2023-02-28T06:02:28.431Z,77.90
2023-02-28T06:04:57.409Z,76.70
2023-02-28T06:07:26.211Z,76.80
2023-02-28T06:09:55.107Z,76.30
2023-02-28T06:12:24.068Z,76.10
2023-02-28T06:14:53.376Z,76.40
2023-02-28T06:17:22.754Z,76.50
2023-02-28T06:20:01.880Z,76.60
2023-02-28T06:22:32.677Z,76.70
2023-02-28T06:25:02.353Z,76.10
2023-02-28T06:27:31.221Z,75.60
2023-02-28T06:30:00.346Z,75.40
2023-02-28T06:32:29.380Z,74.70
2023-02-28T06:34:59.683Z,74.70
2023-02-28T06:37:28.794Z,74.70
2023-02-28T06:39:58.184Z,74.80
2023-02-28T06:42:30.001Z,75.30
2023-02-28T06:45:00.352Z,75.60
2023-02-28T06:47:29.469Z,75.80
2023-02-28T06:49:59.731Z,76.10
2023-02-28T06:52:28.617Z,76.30
2023-02-28T06:55:02.304Z,76.20
2023-02-28T06:57:32.977Z,76.30
2023-02-28T07:00:02.406Z,76.50
2023-02-28T07:02:31.705Z,77.40
2023-02-28T07:05:02.081Z,76.70
2023-02-28T07:07:37.471Z,76.80
2023-02-28T07:10:07.199Z,77.20
2023-02-28T07:12:36.233Z,77.40
2023-02-28T07:15:05.365Z,77.60
2023-02-28T07:17:34.357Z,76.40
2023-02-28T07:20:06.343Z,74.50
2023-02-28T07:22:35.740Z,72.70
2023-02-28T07:25:04.694Z,71.20
2023-02-28T07:27:33.569Z,69.90
2023-02-28T07:30:04.805Z,68.80
2023-02-28T07:32:33.727Z,68.10
2023-02-28T07:35:04.086Z,67.20
2023-02-28T07:37:37.636Z,66.20
2023-02-28T07:40:09.688Z,65.70
2023-02-28T07:42:39.028Z,65.10
2023-02-28T07:45:09.475Z,64.60
2023-02-28T07:47:38.832Z,64.40
2023-02-28T07:50:11.052Z,65.10
2023-02-28T07:52:40.253Z,64.50
2023-02-28T07:55:12.168Z,63.00
2023-02-28T07:57:46.904Z,61.70
2023-02-28T08:00:17.668Z,61.50
2023-02-28T08:02:50.061Z,61.20
2023-02-28T08:05:22.252Z,61.10
2023-02-28T08:07:52.468Z,61.50
2023-02-28T08:10:21.517Z,61.00
2023-02-28T08:12:50.477Z,61.10
2023-02-28T08:15:23.684Z,61.10
2023-02-28T08:18:00.200Z,60.80
2023-02-28T08:20:32.235Z,61.30
2023-02-28T08:23:09.707Z,60.60
2023-02-28T08:25:43.392Z,60.50
2023-02-28T08:28:14.302Z,61.00
2023-02-28T08:31:02.515Z,61.70
2023-02-28T08:33:33.402Z,61.90
2023-02-28T08:36:04.317Z,62.20
2023-02-28T08:38:38.127Z,62.70
2023-02-28T08:41:10.496Z,62.50
2023-02-28T08:43:40.059Z,62.60
2023-02-28T08:46:10.798Z,62.00
2023-02-28T08:48:40.103Z,61.90
2023-02-28T08:51:12.787Z,62.30
2023-02-28T08:53:42.474Z,62.50
2023-02-28T08:56:13.390Z,62.90
2023-02-28T08:58:42.629Z,63.20
2023-02-28T09:01:15.110Z,63.20
2023-02-28T09:03:47.233Z,63.30
2023-02-28T09:06:18.997Z,63.30
2023-02-28T09:08:48.009Z,62.30
2023-02-28T09:11:24.477Z,62.10
2023-02-28T09:13:54.311Z,61.70
2023-02-28T09:16:23.631Z,61.90
2023-02-28T09:18:52.564Z,62.00
2023-02-28T09:21:22.833Z,62.10
2023-02-28T09:23:52.966Z,62.10
2023-02-28T09:26:24.675Z,61.90
2023-02-28T09:28:54.391Z,61.70
2023-02-28T09:31:25.749Z,61.90
2023-02-28T09:33:56.947Z,61.60
2023-02-28T09:36:41.831Z,61.90
2023-02-28T09:39:13.512Z,61.50
2023-02-28T09:41:52.072Z,61.90
2023-02-28T09:44:27.614Z,61.50
2023-02-28T09:47:00.916Z,61.60
2023-02-28T09:49:38.292Z,61.50
2023-02-28T09:52:13.387Z,61.90
2023-02-28T09:54:42.517Z,61.80
2023-02-28T09:57:20.185Z,61.70
2023-02-28T10:00:06.074Z,62.10
2023-02-28T10:02:54.430Z,62.30
2023-02-28T10:05:28.270Z,61.90
2023-02-28T10:08:06.321Z,61.60
2023-02-28T10:10:41.662Z,62.10
2023-02-28T10:13:20.100Z,61.80
2023-02-28T10:15:52.484Z,61.90
2023-02-28T10:18:27.044Z,61.60
2023-02-28T10:20:58.207Z,61.50
2023-02-28T10:23:31.228Z,61.20
2023-02-28T10:26:02.692Z,60.80
2023-02-28T10:28:33.486Z,60.60
2023-02-28T10:31:02.875Z,60.30
2023-02-28T10:33:33.930Z,59.90
2023-02-28T10:36:04.165Z,59.70
2023-02-28T10:38:38.622Z,59.60
2023-02-28T10:41:09.794Z,59.50
2023-02-28T10:43:40.372Z,58.90
2023-02-28T10:46:27.117Z,58.70
2023-02-28T10:49:07.942Z,58.30
2023-02-28T10:51:41.907Z,58.40
2023-02-28T10:54:21.112Z,58.30
2023-02-28T10:57:10.244Z,58.20
2023-02-28T10:59:39.348Z,58.00
2023-02-28T11:05:03.842Z,57.90
2023-02-28T11:07:41.463Z,57.70
2023-02-28T11:10:24.253Z,57.70
2023-02-28T11:12:58.710Z,57.70
2023-02-28T11:15:32.154Z,57.80
2023-02-28T11:18:04.807Z,57.80
2023-02-28T11:20:36.402Z,57.50
2023-02-28T11:23:07.454Z,57.70
2023-02-28T11:25:40.443Z,56.80
2023-02-28T11:28:29.647Z,56.70
2023-02-28T11:31:16.778Z,55.90
2023-02-28T11:33:51.361Z,56.10
2023-02-28T11:36:25.828Z,55.90
2023-02-28T11:38:56.490Z,56.30
2023-02-28T11:41:51.273Z,55.40
2023-02-28T11:44:36.469Z,54.30
2023-02-28T11:47:12.496Z,53.80
2023-02-28T11:49:48.830Z,53.00
2023-02-28T11:52:27.063Z,51.10
2023-02-28T11:55:16.440Z,50.70
2023-02-28T11:58:03.957Z,50.70
2023-02-28T12:00:42.903Z,50.70
2023-02-28T12:03:24.939Z,50.50
2023-02-28T12:06:03.299Z,50.40
2023-02-28T12:08:46.687Z,49.90
2023-02-28T12:11:22.196Z,49.70
2023-02-28T12:14:03.985Z,49.70
2023-02-28T12:16:47.294Z,49.00
2023-02-28T12:19:22.440Z,49.00
2023-02-28T12:22:05.982Z,48.80
2023-02-28T12:25:01.327Z,48.40
2023-02-28T12:27:34.528Z,48.30
2023-02-28T12:30:08.632Z,48.50
2023-02-28T12:32:41.638Z,48.60
2023-02-28T12:35:16.702Z,49.40
2023-02-28T12:37:50.395Z,47.90
2023-02-28T12:40:22.774Z,47.70
2023-02-28T12:42:55.194Z,47.10
2023-02-28T12:45:28.606Z,46.60
2023-02-28T12:48:04.142Z,46.80
2023-02-28T12:50:34.797Z,46.80
2023-02-28T12:53:11.598Z,47.30
2023-02-28T12:55:45.553Z,47.60
2023-02-28T12:58:23.248Z,47.60
2023-02-28T13:01:16.018Z,47.40
2023-02-28T13:04:16.482Z,47.50
2023-02-28T13:07:09.072Z,47.80
2023-02-28T13:09:39.374Z,48.10
2023-02-28T13:12:16.688Z,48.40
2023-02-28T13:14:46.239Z,48.60
2023-02-28T13:17:22.504Z,48.70
2023-02-28T13:20:01.790Z,48.80
2023-02-28T13:22:43.517Z,48.70
2023-02-28T13:25:55.885Z,48.80
2023-02-28T13:29:10.258Z,48.90
2023-02-28T13:32:16.192Z,48.90
2023-02-28T13:35:30.547Z,49.70
2023-02-28T13:38:24.141Z,50.50
2023-02-28T13:40:53.307Z,50.80
2023-02-28T13:43:34.619Z,50.80
2023-02-28T13:46:14.636Z,51.10
2023-02-28T13:48:44.333Z,51.50
2023-02-28T13:51:43.408Z,52.20
2023-02-28T13:54:36.874Z,52.50
2023-02-28T13:57:24.453Z,53.00
2023-02-28T14:00:06.722Z,53.10
2023-02-28T14:03:14.173Z,53.30
2023-02-28T14:05:43.755Z,53.60
2023-02-28T14:08:22.114Z,53.80
2023-02-28T14:10:53.227Z,54.30
2023-02-28T14:13:46.226Z,54.60
2023-02-28T14:16:17.811Z,55.00
2023-02-28T14:18:57.844Z,55.60
2023-02-28T14:21:29.942Z,56.30
2023-02-28T14:24:29.085Z,57.10
2023-02-28T14:27:17.786Z,57.90
2023-02-28T14:30:13.849Z,58.20
2023-02-28T14:32:50.675Z,58.90
2023-02-28T14:35:31.863Z,59.30
2023-02-28T14:38:00.996Z,60.00
2023-02-28T14:40:35.420Z,60.80
2023-02-28T14:43:06.290Z,61.70
2023-02-28T14:45:38.717Z,62.60
2023-02-28T14:48:12.390Z,63.40
2023-02-28T14:50:43.454Z,64.30
2023-02-28T14:53:20.652Z,65.30
2023-02-28T14:55:54.103Z,65.90
2023-02-28T14:58:27.048Z,66.20
2023-02-28T15:00:58.024Z,66.80
2023-02-28T15:03:36.713Z,67.00
2023-02-28T15:06:08.278Z,67.70
2023-02-28T15:08:37.569Z,68.70
2023-02-28T15:11:15.296Z,68.70
2023-02-28T15:13:47.490Z,69.00
2023-02-28T15:16:20.860Z,69.60
2023-02-28T15:18:53.750Z,70.20
2023-02-28T15:21:25.059Z,71.10
2023-02-28T15:23:57.559Z,71.10
2023-02-28T15:26:34.398Z,71.60
2023-02-28T15:29:06.871Z,71.80
2023-02-28T15:31:55.347Z,72.10
2023-02-28T15:34:36.978Z,72.40
2023-02-28T15:37:25.155Z,72.50
2023-02-28T15:39:55.384Z,72.60
2023-02-28T15:42:30.488Z,72.80
2023-02-28T15:45:00.847Z,73.30
2023-02-28T15:47:31.751Z,72.90
2023-02-28T15:50:03.168Z,73.10
2023-02-28T15:52:39.974Z,73.10
2023-02-28T15:55:14.967Z,73.30
2023-02-28T15:57:47.475Z,73.10
2023-02-28T16:00:21.132Z,73.10
2023-02-28T16:02:51.559Z,73.20
2023-02-28T16:05:33.076Z,72.70
2023-02-28T16:08:05.060Z,72.70
2023-02-28T16:10:34.373Z,72.20
2023-02-28T16:13:05.693Z,71.50
2023-02-28T16:15:42.711Z,71.00
2023-02-28T16:18:14.259Z,70.50
2023-02-28T16:20:45.571Z,70.00
2023-02-28T16:23:14.619Z,69.30
2023-02-28T16:25:47.184Z,68.60
2023-02-28T16:28:22.773Z,68.50
2023-02-28T16:30:54.079Z,68.20
2023-02-28T16:33:24.851Z,67.80
2023-02-28T16:35:55.844Z,67.60
2023-02-28T16:38:26.483Z,67.50
2023-02-28T16:40:59.045Z,67.30
2023-02-28T16:43:35.318Z,67.20
2023-02-28T16:46:04.912Z,67.20
2023-02-28T16:48:33.814Z,67.10
2023-02-28T16:51:05.479Z,67.20
2023-02-28T16:53:37.461Z,67.20
2023-02-28T16:56:08.148Z,67.30
2023-02-28T16:58:38.609Z,67.40
2023-02-28T17:01:08.126Z,67.70
2023-02-28T17:03:37.959Z,67.90
2023-02-28T17:06:08.596Z,68.30
2023-02-28T17:08:37.638Z,68.40
2023-02-28T17:11:06.745Z,69.20
2023-02-28T17:13:35.897Z,68.50
2023-02-28T17:16:06.909Z,68.60
2023-02-28T17:18:36.043Z,68.80
2023-02-28T17:21:04.990Z,68.80
2023-02-28T17:23:34.151Z,68.70
2023-02-28T17:26:03.553Z,68.80
2023-02-28T17:28:32.984Z,68.80
2023-02-28T17:31:01.983Z,68.80
2023-02-28T17:33:32.330Z,68.80
2023-02-28T17:36:01.425Z,68.80
2023-02-28T17:38:30.292Z,68.90
2023-02-28T17:40:59.368Z,68.70
2023-02-28T17:43:28.516Z,68.90
2023-02-28T17:45:59.423Z,68.80
2023-02-28T17:48:29.611Z,68.90
2023-02-28T17:51:01.224Z,69.10
2023-02-28T17:53:30.145Z,69.10
2023-02-28T17:55:59.373Z,69.20
2023-02-28T17:58:28.702Z,69.40
2023-02-28T18:00:57.593Z,69.70
2023-02-28T18:03:27.121Z,70.10
2023-02-28T18:05:58.242Z,70.60
2023-02-28T18:08:28.720Z,70.80
2023-02-28T18:10:57.756Z,71.00
2023-02-28T18:13:28.909Z,71.00
2023-02-28T18:15:57.971Z,71.20
2023-02-28T18:18:26.900Z,71.40
2023-02-28T18:20:55.815Z,71.30
2023-02-28T18:23:24.764Z,71.40
2023-02-28T18:25:57.397Z,71.20
2023-02-28T18:28:29.266Z,71.10
2023-02-28T18:30:58.925Z,70.90
2023-02-28T18:33:28.062Z,70.90
2023-02-28T18:36:00.417Z,71.20
2023-02-28T18:38:31.809Z,71.30
2023-02-28T18:41:05.190Z,71.20
2023-02-28T18:43:36.438Z,71.20
2023-02-28T18:46:12.669Z,71.40
2023-02-28T18:48:42.541Z,71.60
2023-02-28T18:51:14.236Z,71.90
2023-02-28T18:53:45.904Z,72.20
2023-02-28T18:56:19.688Z,73.20
2023-02-28T18:59:02.000Z,72.90
2023-02-28T19:01:33.907Z,73.00
2023-02-28T19:04:04.157Z,73.30
2023-02-28T19:06:35.642Z,73.60
2023-02-28T19:09:06.086Z,73.90
2023-02-28T19:11:37.172Z,74.20
2023-02-28T19:14:06.606Z,74.50
2023-02-28T19:16:39.225Z,74.70
2023-02-28T19:19:09.589Z,74.80
2023-02-28T19:21:40.534Z,74.90
2023-02-28T19:24:10.284Z,75.10
2023-02-28T19:26:41.364Z,75.30
2023-02-28T19:29:11.284Z,75.60
2023-02-28T19:31:40.979Z,75.80
2023-02-28T19:34:10.372Z,75.80
2023-02-28T19:36:39.577Z,76.20
2023-02-28T19:39:09.030Z,76.60
2023-02-28T19:41:39.936Z,77.00
2023-02-28T19:44:27.889Z,77.30
2023-02-28T19:46:56.783Z,77.70
2023-02-28T19:49:26.090Z,78.30
2023-02-28T19:51:56.626Z,79.00
2023-02-28T19:54:26.520Z,79.50
2023-02-28T19:56:58.606Z,80.30
2023-02-28T19:59:38.131Z,81.00
2023-02-28T20:02:08.565Z,81.70
2023-02-28T20:04:37.601Z,82.40
2023-02-28T20:07:06.789Z,83.00
2023-02-28T20:09:35.814Z,84.40
2023-02-28T20:12:09.303Z,84.30
2023-02-28T20:14:43.648Z,84.80
2023-02-28T20:17:12.513Z,85.40
2023-02-28T20:19:41.686Z,85.80
2023-02-28T20:22:12.441Z,86.30
2023-02-28T20:24:42.351Z,86.70
2023-02-28T20:27:12.905Z,87.20
2023-02-28T20:29:42.761Z,87.70
2023-02-28T20:32:14.239Z,88.10
2023-02-28T20:34:45.856Z,88.60
2023-02-28T20:37:14.941Z,89.20
2023-02-28T20:39:43.932Z,89.80
2023-02-28T20:42:14.417Z,90.10
2023-02-28T20:44:43.650Z,90.30
2023-02-28T20:47:12.567Z,90.50
2023-02-28T20:49:41.734Z,90.80
2023-02-28T20:52:10.857Z,91.00
2023-02-28T20:54:39.751Z,91.20
2023-02-28T20:57:10.211Z,91.50
2023-02-28T20:59:42.189Z,91.80
2023-02-28T21:02:15.899Z,92.10
2023-02-28T21:04:45.062Z,92.20
2023-02-28T21:07:13.925Z,92.50
2023-02-28T21:09:43.218Z,92.80
2023-02-28T21:12:12.090Z,93.20
2023-02-28T21:14:42.374Z,93.50
2023-02-28T21:17:11.878Z,93.80
2023-02-28T21:19:40.722Z,94.00
2023-02-28T21:22:09.717Z,94.20
2023-02-28T21:24:39.480Z,94.50
2023-02-28T21:27:08.577Z,94.70
2023-02-28T21:29:37.557Z,94.90
2023-02-28T21:32:08.799Z,95.30
2023-02-28T21:34:40.466Z,95.60
2023-02-28T21:37:10.308Z,95.90
2023-02-28T21:39:39.533Z,96.20
2023-02-28T21:42:11.596Z,96.50
2023-02-28T21:44:40.623Z,97.00
2023-02-28T21:47:11.070Z,97.00
2023-02-28T21:49:43.650Z,97.30
2023-02-28T21:52:12.636Z,97.60
2023-02-28T21:54:46.503Z,97.90
2023-02-28T21:57:20.990Z,98.10
2023-02-28T21:59:50.183Z,98.30
2023-02-28T22:02:20.644Z,98.60
2023-02-28T22:04:49.716Z,98.90
2023-02-28T22:07:18.533Z,99.10
2023-02-28T22:09:47.504Z,99.50
2023-02-28T22:12:16.657Z,99.70
2023-02-28T22:14:46.325Z,99.90
2023-02-28T22:17:15.233Z,99.90
2023-02-28T22:19:45.693Z,99.90
2023-02-28T22:22:14.740Z,99.90
2023-02-28T22:24:43.691Z,99.90
2023-02-28T22:27:12.496Z,99.90
2023-02-28T22:29:41.715Z,99.90
2023-02-28T22:32:11.609Z,99.90
2023-02-28T22:34:40.459Z,99.90
2023-02-28T22:37:10.903Z,99.90
2023-02-28T22:39:39.820Z,99.90
2023-02-28T22:42:09.996Z,99.90
2023-02-28T22:44:39.088Z,99.90
2023-02-28T22:47:08.436Z,99.90
2023-02-28T22:49:43.297Z,99.90
2023-02-28T22:52:13.616Z,99.90
2023-02-28T22:54:42.601Z,99.90
2023-02-28T22:57:12.769Z,99.90
2023-02-28T22:59:41.605Z,99.90
2023-02-28T23:02:10.673Z,99.90
2023-02-28T23:04:39.565Z,99.90
2023-02-28T23:07:08.428Z,99.90
2023-02-28T23:09:39.414Z,99.90
2023-02-28T23:12:08.627Z,99.90
2023-02-28T23:14:37.551Z,99.90
2023-02-28T23:17:06.514Z,99.90
2023-02-28T23:19:35.379Z,99.90
2023-02-28T23:22:05.867Z,99.90
2023-02-28T23:24:36.902Z,99.90
2023-02-28T23:27:12.770Z,99.90
2023-02-28T23:29:42.370Z,99.90
2023-02-28T23:32:11.373Z,99.90
2023-02-28T23:34:40.327Z,99.90
2023-02-28T23:37:09.766Z,99.90
2023-02-28T23:39:38.680Z,99.90
2023-02-28T23:42:09.074Z,99.90
2023-02-28T23:44:38.006Z,99.90
2023-02-28T23:47:06.896Z,99.90
2023-02-28T23:49:35.867Z,99.90
2023-02-28T23:52:05.813Z,99.90
2023-02-28T23:54:34.894Z,99.90
2023-02-28T23:57:03.747Z,99.90
2023-02-28T23:59:34.011Z,99.90
